TimeCDT,TemperatureF,Dew PointF,Humidity,Sea Level PressureIn,VisibilityMPH,Wind Direction,Wind SpeedMPH,Gust SpeedMPH,PrecipitationIn,Events,Conditions,WindDirDegrees,DateUTC
12:52 AM,45.0,39.0,80,29.79,10.0,NW,9.2,-,N/A,,Clear,310,2013-04-07 05:52:00
1:52 AM,43.0,39.0,86,29.81,10.0,NW,10.4,-,N/A,,Clear,320,2013-04-07 06:52:00
2:52 AM,43.0,37.9,82,29.81,10.0,NNW,12.7,-,N/A,,Clear,330,2013-04-07 07:52:00
3:52 AM,42.1,37.9,85,29.82,10.0,NNW,6.9,-,N/A,,Clear,330,2013-04-07 08:52:00
4:52 AM,39.9,37.0,89,29.86,9.0,NW,6.9,-,N/A,,Clear,320,2013-04-07 09:52:00
5:52 AM,39.0,36.0,89,29.88,9.0,Calm,Calm,-,N/A,,Clear,0,2013-04-07 10:52:00
6:52 AM,34.0,33.1,96,29.91,5.0,Calm,Calm,-,N/A,,Clear,0,2013-04-07 11:52:00
7:52 AM,37.9,36.0,93,29.93,5.0,Calm,Calm,-,N/A,,Clear,0,2013-04-07 12:52:00
8:52 AM,44.1,37.0,76,29.95,10.0,Calm,Calm,-,N/A,,Clear,0,2013-04-07 13:52:00
9:52 AM,46.9,37.9,71,29.96,10.0,NNE,3.5,-,N/A,,Clear,30,2013-04-07 14:52:00
11:52 AM,52.0,39.0,61,29.97,10.0,Calm,Calm,-,N/A,,Clear,0,2013-04-07 16:52:00
12:52 PM,55.0,39.0,55,29.96,10.0,Variable,3.5,-,N/A,,Clear,0,2013-04-07 17:52:00
1:52 PM,57.0,39.9,53,29.94,10.0,Calm,Calm,-,N/A,,Clear,0,2013-04-07 18:52:00
2:52 PM,59.0,39.9,49,29.92,10.0,ESE,4.6,-,N/A,,Clear,120,2013-04-07 19:52:00
3:52 PM,61.0,41.0,48,29.90,10.0,East,4.6,-,N/A,,Clear,90,2013-04-07 20:52:00
4:52 PM,64.0,42.1,45,29.88,10.0,SSE,8.1,-,N/A,,Clear,160,2013-04-07 21:52:00
5:52 PM,62.1,41.0,46,29.87,10.0,ESE,8.1,-,N/A,,Clear,120,2013-04-07 22:52:00
6:52 PM,61.0,41.0,48,29.86,10.0,ESE,6.9,-,N/A,,Scattered Clouds,110,2013-04-07 23:52:00
7:52 PM,60.1,41.0,49,29.84,10.0,East,8.1,-,N/A,,Scattered Clouds,100,2013-04-08 00:52:00
8:52 PM,59.0,41.0,51,29.82,10.0,East,6.9,-,N/A,,Clear,90,2013-04-08 01:52:00
9:52 PM,55.9,41.0,57,29.80,10.0,East,9.2,-,N/A,,Clear,90,2013-04-08 02:52:00
10:52 PM,54.0,41.0,62,29.78,10.0,ESE,6.9,-,N/A,,Clear,110,2013-04-08 03:52:00
11:52 PM,53.1,41.0,64,29.76,10.0,ESE,6.9,-,N/A,,Clear,120,2013-04-08 04:52:00